Time;durP1;ratioP1;P1;durP2;ratioP2;P2;SDS_P1;SDS_P2;PMS_P1;PMS_P2;Temp;Humidity;BMP_temperature;BMP_pressure;BME280_temperature;BME280_humidity;BME280_pressure;Samples;Min_cycle;Max_cycle;Signal;HPM_P1;HPM_P2
2022/09/19 00:00:48;;;;;;;0.00;0.00;;;7.20;99.90;;;;;;5059514;28;19897;-75
2022/09/19 00:03:14;;;;;;;0.00;0.00;;;7.20;99.90;;;;;;5050192;28;20036;-76
2022/09/19 00:05:46;;;;;;;0.00;0.00;;;7.20;99.90;;;;;;5053390;28;20029;-76
2022/09/19 00:08:22;;;;;;;0.00;0.00;;;7.20;99.90;;;;;;5045704;28;20021;-77
2022/09/19 00:10:58;;;;;;;0.00;0.00;;;7.20;99.90;;;;;;5063651;28;20033;-76
2022/09/19 00:13:48;;;;;;;0.00;0.00;;;7.60;99.90;;;;;;5067250;28;20029;-76
2022/09/19 00:16:23;;;;;;;0.00;0.00;;;7.10;99.90;;;;;;5048591;28;20060;-76
2022/09/19 00:19:15;;;;;;;0.00;0.00;;;7.10;99.90;;;;;;5049092;28;20392;-75
2022/09/19 00:35:23;;;;;;;0.00;0.00;;;7.00;99.90;;;;;;5062160;28;20029;-76
2022/09/19 00:37:50;;;;;;;0.10;0.10;;;7.00;99.90;;;;;;5052952;28;20110;-76
2022/09/19 00:40:18;;;;;;;0.00;0.00;;;7.00;99.90;;;;;;5052147;28;20559;-76
2022/09/19 00:42:48;;;;;;;0.00;0.00;;;7.00;99.90;;;;;;5034168;28;20605;-76
2022/09/19 00:45:17;;;;;;;0.80;0.80;;;7.00;99.90;;;;;;5056012;28;20228;-76
2022/09/19 00:48:06;;;;;;;0.00;0.00;;;6.50;99.90;;;;;;5046803;28;20032;-76
2022/09/19 00:50:37;;;;;;;0.10;0.10;;;7.00;99.90;;;;;;5012289;28;20040;-75
2022/09/19 00:53:40;;;;;;;0.00;0.00;;;7.00;99.90;;;;;;5065487;28;20021;-75
2022/09/19 00:56:18;;;;;;;0.00;0.00;;;7.00;99.90;;;;;;5057426;28;20021;-76
2022/09/19 00:59:02;;;;;;;0.00;0.00;;;7.00;99.90;;;;;;5067721;28;20021;-75
2022/09/19 01:01:31;;;;;;;0.10;0.10;;;7.00;99.90;;;;;;5069626;28;20021;-77
2022/09/19 01:04:20;;;;;;;0.00;0.00;;;7.00;99.90;;;;;;5070772;28;20087;-75
2022/09/19 01:06:56;;;;;;;0.00;0.00;;;7.00;99.90;;;;;;5071519;28;20021;-74
2022/09/19 01:09:57;;;;;;;0.00;0.00;;;7.00;99.90;;;;;;5068631;28;20045;-75
2022/09/19 01:12:44;;;;;;;0.00;0.00;;;7.00;99.90;;;;;;5053222;28;20048;-75
2022/09/19 01:15:53;;;;;;;0.00;0.00;;;7.00;99.90;;;;;;5071534;28;20025;-79
2022/09/19 01:19:02;;;;;;;0.00;0.00;;;6.90;99.90;;;;;;5071243;28;20025;-76
2022/09/19 01:21:59;;;;;;;0.00;0.00;;;7.00;99.90;;;;;;5058111;28;20206;-75
2022/09/19 01:24:51;;;;;;;0.00;0.00;;;6.90;99.90;;;;;;5045532;28;20040;-76
2022/09/19 01:27:40;;;;;;;0.00;0.00;;;7.00;99.90;;;;;;5046875;28;20025;-76
2022/09/19 01:30:11;;;;;;;0.00;0.00;;;7.00;99.90;;;;;;5050759;28;20229;-75
2022/09/19 01:32:58;;;;;;;0.00;0.00;;;7.00;99.90;;;;;;5052238;28;20032;-76
2022/09/19 01:35:39;;;;;;;0.00;0.00;;;7.00;99.90;;;;;;5056362;28;20005;-75
2022/09/19 01:38:39;;;;;;;0.00;0.00;;;7.00;99.90;;;;;;5078063;28;20072;-75
2022/09/19 01:41:08;;;;;;;0.00;0.00;;;7.00;99.90;;;;;;5078426;28;20044;-75
2022/09/19 01:43:34;;;;;;;0.00;0.00;;;7.00;99.90;;;;;;5062274;28;20081;-76
2022/09/19 01:46:14;;;;;;;0.00;0.00;;;6.90;99.90;;;;;;5078228;28;20094;-75
2022/09/19 01:48:54;;;;;;;0.00;0.00;;;6.90;99.90;;;;;;5078561;28;20051;-75
2022/09/19 01:51:51;;;;;;;0.00;0.00;;;6.90;99.90;;;;;;5058077;28;20061;-75
2022/09/19 01:55:01;;;;;;;0.00;0.00;;;6.80;99.90;;;;;;5076393;28;20033;-75
2022/09/19 01:57:55;;;;;;;0.00;0.00;;;6.80;99.90;;;;;;5077008;28;20052;-76
2022/09/19 02:00:25;;;;;;;0.00;0.00;;;7.10;99.90;;;;;;4978934;28;20027;-74
2022/09/19 02:03:15;;;;;;;0.00;0.00;;;6.70;99.90;;;;;;4979590;28;20053;-75
2022/09/19 02:06:22;;;;;;;0.00;0.00;;;6.60;99.90;;;;;;4996695;28;20148;-76
2022/09/19 02:09:36;;;;;;;0.00;0.00;;;6.60;99.90;;;;;;4994432;28;20031;-75
2022/09/19 02:12:29;;;;;;;0.00;0.00;;;6.50;99.90;;;;;;4939901;29;20034;-77
2022/09/19 02:14:59;;;;;;;0.10;0.10;;;6.50;99.90;;;;;;4935242;29;20035;-76
2022/09/19 02:17:50;;;;;;;0.00;0.00;;;6.50;99.90;;;;;;4911515;29;20032;-76
2022/09/19 02:20:30;;;;;;;0.00;0.00;;;6.50;99.90;;;;;;4890533;29;20042;-75
2022/09/19 02:23:20;;;;;;;0.10;0.10;;;6.50;99.90;;;;;;4902594;29;20033;-75
2022/09/19 02:25:50;;;;;;;0.00;0.00;;;6.50;99.90;;;;;;4897706;29;20108;-75
2022/09/19 02:28:29;;;;;;;0.00;0.00;;;6.50;99.90;;;;;;4892815;29;20021;-75
2022/09/19 02:30:55;;;;;;;0.00;0.00;;;6.60;99.90;;;;;;4875593;29;20044;-76
2022/09/19 02:33:21;;;;;;;0.00;0.00;;;6.60;99.90;;;;;;4893873;29;20029;-76
2022/09/19 02:36:33;;;;;;;0.10;0.10;;;6.60;99.90;;;;;;4893469;29;20028;-75
2022/09/19 02:39:36;;;;;;;0.00;0.00;;;6.60;99.90;;;;;;4950234;29;20565;-75
2022/09/19 02:42:52;;;;;;;0.00;0.00;;;6.60;99.90;;;;;;4951880;28;20034;-75
2022/09/19 02:45:41;;;;;;;0.00;0.00;;;6.60;99.90;;;;;;4970492;28;20043;-76
2022/09/19 02:48:17;;;;;;;0.00;0.00;;;6.60;99.90;;;;;;4954812;28;20170;-76
2022/09/19 02:50:54;;;;;;;0.00;0.00;;;6.60;99.90;;;;;;4992877;28;20044;-76
2022/09/19 02:53:26;;;;;;;0.00;0.00;;;6.60;99.90;;;;;;5023142;28;20070;-76
2022/09/19 03:04:11;;;;;;;0.00;0.00;;;6.60;99.90;;;;;;5027673;28;20112;-77
2022/09/19 03:05:56;;;;;;;0.00;0.00;;;6.70;99.90;;;;;;5006939;28;20050;-75
2022/09/19 03:08:25;;;;;;;0.00;0.00;;;6.70;99.90;;;;;;5027421;28;20379;-76
2022/09/19 03:10:56;;;;;;;0.38;0.38;;;6.80;99.90;;;;;;5026674;28;20028;-75
2022/09/19 03:13:24;;;;;;;0.00;0.00;;;6.70;99.90;;;;;;5027710;28;20034;-76
2022/09/19 03:16:12;;;;;;;0.00;0.00;;;6.70;99.90;;;;;;4993261;28;20026;-76
2022/09/19 03:18:45;;;;;;;0.10;0.10;;;6.60;99.90;;;;;;5028910;28;20029;-77
2022/09/19 03:21:37;;;;;;;0.00;0.00;;;6.50;99.90;;;;;;5029903;28;20034;-76
2022/09/19 03:24:05;;;;;;;0.00;0.00;;;6.60;99.90;;;;;;5015231;28;20064;-77
2022/09/19 03:26:36;;;;;;;0.10;0.10;;;6.50;99.90;;;;;;5031856;28;20010;-76
2022/09/19 03:29:09;;;;;;;0.00;0.00;;;6.40;99.90;;;;;;5028575;28;20247;-76
2022/09/19 03:31:35;;;;;;;0.00;0.00;;;6.30;99.90;;;;;;5031356;28;20061;-76
2022/09/19 03:34:07;;;;;;;0.10;0.10;;;6.30;99.90;;;;;;5052304;28;20037;-76
2022/09/19 03:36:55;;;;;;;0.00;0.00;;;6.20;99.90;;;;;;5053280;28;20013;-75
2022/09/19 03:39:22;;;;;;;0.00;0.00;;;6.10;99.90;;;;;;5039172;28;20255;-76
2022/09/19 03:41:50;;;;;;;0.00;0.00;;;6.00;99.90;;;;;;5031229;28;20029;-75
2022/09/19 03:44:22;;;;;;;0.08;0.08;;;6.10;99.90;;;;;;5040195;28;20081;-75
2022/09/19 03:46:49;;;;;;;0.00;0.00;;;6.10;99.90;;;;;;5046078;28;20105;-75
2022/09/19 03:49:25;;;;;;;0.10;0.10;;;6.10;99.90;;;;;;5046351;28;20041;-75
2022/09/19 03:51:51;;;;;;;0.00;0.00;;;6.10;99.90;;;;;;5043918;28;20024;-75
2022/09/19 03:54:17;;;;;;;0.00;0.00;;;6.20;99.90;;;;;;5022948;28;20025;-76
2022/09/19 03:56:45;;;;;;;0.00;0.00;;;6.20;99.90;;;;;;5026759;28;20113;-76
2022/09/19 03:59:11;;;;;;;0.00;0.00;;;6.10;99.90;;;;;;5029257;28;20053;-76
2022/09/19 04:01:37;;;;;;;0.00;0.00;;;6.10;99.90;;;;;;5028369;28;20273;-76
2022/09/19 04:04:04;;;;;;;0.08;0.08;;;6.10;99.90;;;;;;5027295;28;20068;-76
2022/09/19 04:06:30;;;;;;;0.00;0.00;;;6.00;99.90;;;;;;5030999;28;20112;-76
2022/09/19 04:08:56;;;;;;;0.03;0.03;;;6.00;99.90;;;;;;5039530;28;20044;-74
2022/09/19 04:11:21;;;;;;;0.00;0.00;;;6.00;99.90;;;;;;5070952;28;20033;-76
2022/09/19 04:13:49;;;;;;;0.00;0.00;;;6.00;99.90;;;;;;5072756;28;20084;-75
2022/09/19 04:16:17;;;;;;;0.00;0.00;;;6.00;99.90;;;;;;5072094;28;20093;-76
2022/09/19 04:18:47;;;;;;;0.00;0.00;;;6.00;99.90;;;;;;5055703;28;20033;-76
2022/09/19 04:21:16;;;;;;;0.00;0.00;;;6.00;99.90;;;;;;5069981;28;20067;-76
2022/09/19 04:23:41;;;;;;;0.28;0.28;;;6.00;99.90;;;;;;5068645;28;20234;-75
2022/09/19 04:26:13;;;;;;;0.00;0.00;;;6.10;99.90;;;;;;5070456;28;20025;-75
2022/09/19 04:29:09;;;;;;;0.00;0.00;;;6.60;99.90;;;;;;5071118;28;20614;-75
2022/09/19 04:31:38;;;;;;;0.00;0.00;;;6.10;99.90;;;;;;5070318;28;20074;-76
2022/09/19 04:34:13;;;;;;;0.30;0.30;;;6.20;99.90;;;;;;5067694;28;20013;-75
2022/09/19 04:37:03;;;;;;;0.00;0.00;;;6.20;99.90;;;;;;5068386;28;20017;-76
2022/09/19 04:39:48;;;;;;;9.93;9.52;;;6.20;99.90;;;;;;5070213;28;20096;-77
2022/09/19 04:42:15;;;;;;;0.00;0.00;;;6.30;99.90;;;;;;5052461;28;20041;-77
2022/09/19 04:44:44;;;;;;;0.00;0.00;;;6.30;99.90;;;;;;5070015;28;20013;-76
2022/09/19 04:47:10;;;;;;;0.00;0.00;;;6.40;99.90;;;;;;5073530;28;20027;-74
2022/09/19 04:50:31;;;;;;;0.00;0.00;;;6.40;99.90;;;;;;5066488;28;20048;-75
2022/09/19 04:52:57;;;;;;;3.70;3.50;;;6.40;99.90;;;;;;4954563;29;20027;-75
2022/09/19 04:55:46;;;;;;;0.00;0.00;;;6.50;99.90;;;;;;4956264;29;20047;-75
2022/09/19 04:58:32;;;;;;;0.00;0.00;;;6.50;99.90;;;;;;4927000;29;20099;-76
2022/09/19 05:00:59;;;;;;;0.00;0.00;;;5.50;99.90;;;;;;4926659;29;20031;-77
2022/09/19 05:03:27;;;;;;;0.05;0.05;;;6.70;99.90;;;;;;4938488;29;20016;-75
2022/09/19 05:06:04;;;;;;;0.00;0.00;;;6.70;99.90;;;;;;4955380;29;20092;-75
2022/09/19 05:08:32;;;;;;;0.00;0.00;;;6.80;99.90;;;;;;4936853;29;20032;-75
2022/09/19 05:11:01;;;;;;;0.50;0.50;;;6.80;99.90;;;;;;4928360;29;20070;-75
2022/09/19 05:13:29;;;;;;;0.00;0.00;;;6.70;99.90;;;;;;4914767;29;20123;-76
2022/09/19 05:15:56;;;;;;;0.00;0.00;;;6.70;99.90;;;;;;4936482;29;20569;-75
2022/09/19 05:18:24;;;;;;;0.00;0.00;;;6.70;99.90;;;;;;4948153;29;20120;-75
2022/09/19 05:20:52;;;;;;;0.00;0.00;;;6.70;99.90;;;;;;4931183;29;20043;-75
2022/09/19 05:23:19;;;;;;;0.00;0.00;;;6.70;99.90;;;;;;4975251;28;20018;-75
2022/09/19 05:26:15;;;;;;;0.00;0.00;;;6.70;99.90;;;;;;5016406;28;20054;-74
2022/09/19 05:29:04;;;;;;;0.00;0.00;;;6.60;99.90;;;;;;5036850;28;20060;-75
2022/09/19 05:31:31;;;;;;;0.00;0.00;;;6.80;99.90;;;;;;5056248;28;20126;-76
2022/09/19 05:34:31;;;;;;;0.00;0.00;;;6.90;99.90;;;;;;5070288;28;20029;-76
2022/09/19 05:36:57;;;;;;;0.00;0.00;;;6.90;99.90;;;;;;5052227;28;20014;-75
2022/09/19 05:39:23;;;;;;;0.00;0.00;;;6.90;99.90;;;;;;5024713;28;20344;-76
2022/09/19 05:41:49;;;;;;;0.10;0.10;;;7.10;99.90;;;;;;5024136;28;20036;-75
2022/09/19 05:44:16;;;;;;;0.00;0.00;;;7.20;99.90;;;;;;5024640;28;20025;-76
2022/09/19 05:46:59;;;;;;;0.00;0.00;;;6.70;99.90;;;;;;5030242;28;20057;-76
2022/09/19 05:49:27;;;;;;;0.00;0.00;;;7.40;99.90;;;;;;5030304;28;20034;-76
2022/09/19 05:51:55;;;;;;;0.00;0.00;;;7.50;99.90;;;;;;5032192;28;20055;-75
2022/09/19 05:54:20;;;;;;;0.10;0.10;;;7.70;99.90;;;;;;5018385;28;20030;-76
2022/09/19 05:56:50;;;;;;;0.00;0.00;;;7.80;99.90;;;;;;5037484;28;20036;-76
2022/09/19 05:59:17;;;;;;;0.00;0.00;;;8.00;99.90;;;;;;5038145;28;20077;-77
2022/09/19 06:01:47;;;;;;;0.00;0.00;;;8.10;99.90;;;;;;5037805;28;20034;-75
2022/09/19 06:04:12;;;;;;;0.00;0.00;;;8.40;99.90;;;;;;5037153;28;20095;-76
2022/09/19 06:06:39;;;;;;;0.00;0.00;;;8.50;99.90;;;;;;5025764;28;20029;-76
2022/09/19 06:09:06;;;;;;;0.08;0.08;;;8.60;99.90;;;;;;5027779;28;20057;-75
2022/09/19 06:11:32;;;;;;;0.05;0.05;;;8.70;99.90;;;;;;5026539;28;20029;-76
2022/09/19 06:14:13;;;;;;;0.00;0.00;;;;;;;;;;5025005;28;20570;-76
2022/09/19 06:16:41;;;;;;;0.10;0.10;;;9.10;99.90;;;;;;5025802;28;20403;-76
2022/09/19 06:19:07;;;;;;;0.10;0.10;;;9.30;99.90;;;;;;5026494;28;20465;-76
2022/09/19 06:21:34;;;;;;;0.13;0.13;;;9.50;99.90;;;;;;5025864;28;20030;-76
2022/09/19 06:24:01;;;;;;;0.10;0.10;;;9.60;99.90;;;;;;5027329;28;20164;-76
2022/09/19 06:26:28;;;;;;;0.00;0.00;;;9.80;99.90;;;;;;5026735;28;20033;-76
2022/09/19 06:28:54;;;;;;;0.10;0.10;;;9.90;99.90;;;;;;5026774;28;20040;-77
2022/09/19 06:31:20;;;;;;;0.05;0.05;;;10.10;99.90;;;;;;5027509;28;20029;-76
2022/09/19 06:33:46;;;;;;;0.10;0.10;;;10.20;99.90;;;;;;5041798;28;20080;-76
2022/09/19 06:36:12;;;;;;;0.10;0.10;;;10.40;99.90;;;;;;5049438;28;20029;-76
2022/09/19 06:38:42;;;;;;;0.10;0.10;;;10.50;99.90;;;;;;5058067;28;20021;-76
2022/09/19 06:41:34;;;;;;;0.00;0.00;;;10.70;99.90;;;;;;5063880;28;20041;-76
2022/09/19 06:44:22;;;;;;;0.22;0.22;;;10.80;99.90;;;;;;5066106;28;20029;-76
2022/09/19 06:46:59;;;;;;;0.10;0.10;;;10.80;99.90;;;;;;5065117;28;20025;-76
2022/09/19 06:49:31;;;;;;;0.10;0.10;;;11.00;99.90;;;;;;5065948;28;20021;-75
2022/09/19 06:52:03;;;;;;;0.10;0.10;;;11.20;99.90;;;;;;5063457;28;20025;-76
2022/09/19 06:54:39;;;;;;;0.10;0.10;;;11.30;99.90;;;;;;5061908;28;20028;-76
2022/09/19 06:57:11;;;;;;;0.10;0.10;;;11.50;99.90;;;;;;5062888;28;20056;-76
2022/09/19 06:59:40;;;;;;;0.10;0.10;;;11.60;99.90;;;;;;5063967;28;20116;-76
2022/09/19 07:02:30;;;;;;;0.10;0.10;;;11.70;99.90;;;;;;5041610;28;20025;-76
2022/09/19 07:04:56;;;;;;;0.10;0.10;;;11.80;99.90;;;;;;5064968;28;20104;-76
2022/09/19 07:07:23;;;;;;;0.15;0.15;;;11.90;99.90;;;;;;5053381;28;20033;-81
2022/09/19 07:09:49;;;;;;;0.10;0.10;;;11.90;99.90;;;;;;5044400;28;20143;-84
2022/09/19 07:12:17;;;;;;;0.20;0.20;;;12.10;99.90;;;;;;5041551;28;20056;-77
2022/09/19 07:14:43;;;;;;;0.30;0.30;;;12.10;99.90;;;;;;5046082;28;20021;-79
2022/09/19 07:17:11;;;;;;;0.10;0.10;;;13.20;99.90;;;;;;5046867;28;20186;-90
2022/09/19 07:19:36;;;;;;;0.10;0.10;;;12.50;99.90;;;;;;5043081;28;20031;-84
2022/09/19 07:22:03;;;;;;;0.10;0.10;;;12.50;99.90;;;;;;5045632;28;20025;-76
2022/09/19 07:24:29;;;;;;;0.10;0.10;;;12.70;99.90;;;;;;5046036;28;20246;-80
2022/09/19 07:26:55;;;;;;;0.10;0.10;;;12.90;99.90;;;;;;5044637;28;20040;-81
2022/09/19 07:29:21;;;;;;;10.57;10.15;;;12.90;99.90;;;;;;5044680;28;20499;-89
2022/09/19 07:31:47;;;;;;;0.10;0.10;;;13.10;99.90;;;;;;5045496;28;20097;-85
2022/09/19 07:34:12;;;;;;;0.10;0.10;;;13.20;99.90;;;;;;5047111;28;20379;-82
2022/09/19 07:36:38;;;;;;;0.10;0.10;;;13.30;99.90;;;;;;5047341;28;20028;-77
2022/09/19 07:39:04;;;;;;;0.20;0.20;;;13.40;99.90;;;;;;5047482;28;20371;-89
2022/09/19 07:41:30;;;;;;;0.10;0.10;;;13.50;99.30;;;;;;5043598;28;20302;-76
2022/09/19 07:43:55;;;;;;;0.10;0.10;;;13.60;99.30;;;;;;5039385;28;20430;-81
2022/09/19 07:46:23;;;;;;;0.10;0.10;;;12.40;98.80;;;;;;5041331;28;20105;-76
2022/09/19 07:48:49;;;;;;;0.10;0.10;;;13.90;98.70;;;;;;5041725;28;20024;-78
2022/09/19 07:51:15;;;;;;;5.30;4.82;;;13.90;98.90;;;;;;5042337;28;20028;-78
2022/09/19 07:53:41;;;;;;;0.10;0.10;;;13.50;99.30;;;;;;5043770;28;20025;-76
2022/09/19 07:56:06;;;;;;;0.20;0.20;;;13.90;99.50;;;;;;5039597;28;20017;-76
2022/09/19 07:58:32;;;;;;;3.47;3.38;;;14.00;99.90;;;;;;5042021;28;20086;-81
2022/09/19 08:01:00;;;;;;;0.10;0.10;;;14.10;99.80;;;;;;5043280;28;20501;-84
2022/09/19 08:03:26;;;;;;;0.10;0.10;;;14.10;99.80;;;;;;5040880;28;20538;-78
2022/09/19 08:05:52;;;;;;;0.10;0.10;;;14.20;99.90;;;;;;5040150;28;20033;-78
2022/09/19 08:08:21;;;;;;;0.10;0.10;;;14.30;99.90;;;;;;5040822;28;20033;-79
2022/09/19 08:10:47;;;;;;;0.10;0.10;;;14.10;99.70;;;;;;5040570;28;20033;-86
2022/09/19 08:13:15;;;;;;;0.10;0.10;;;14.60;99.70;;;;;;5040478;28;20210;-78
2022/09/19 08:15:43;;;;;;;0.10;0.10;;;14.70;99.70;;;;;;5042314;28;20239;-83
2022/09/19 08:18:14;;;;;;;0.10;0.10;;;13.30;98.90;;;;;;5044182;28;20021;-76
2022/09/19 08:20:41;;;;;;;0.10;0.10;;;15.00;98.90;;;;;;5039848;28;20091;-78
2022/09/19 08:23:09;;;;;;;0.52;0.52;;;15.20;98.80;;;;;;5040755;28;20049;-81
2022/09/19 08:25:43;;;;;;;0.10;0.10;;;15.40;99.10;;;;;;5041437;28;20479;-80
2022/09/19 08:28:10;;;;;;;0.10;0.10;;;15.60;98.70;;;;;;5039103;28;20279;-75
2022/09/19 08:30:35;;;;;;;0.10;0.10;;;16.30;98.30;;;;;;5043173;28;20033;-75
2022/09/19 08:33:02;;;;;;;0.10;0.10;;;15.80;98.40;;;;;;5039498;28;20013;-78
2022/09/19 08:35:30;;;;;;;0.10;0.10;;;15.90;98.40;;;;;;5040507;28;20595;-79
2022/09/19 08:37:58;;;;;;;0.10;0.10;;;16.00;97.50;;;;;;5043638;28;20051;-82
2022/09/19 08:40:43;;;;;;;0.10;0.10;;;16.10;97.20;;;;;;5044358;28;20108;-82
2022/09/19 08:43:28;;;;;;;0.95;0.95;;;16.10;97.30;;;;;;5046107;28;20518;-84
2022/09/19 08:46:14;;;;;;;0.20;0.20;;;16.10;97.60;;;;;;5044629;28;20045;-83
2022/09/19 08:49:03;;;;;;;0.10;0.10;;;16.20;97.30;;;;;;5027751;28;20040;-91
2022/09/19 08:51:35;;;;;;;0.30;0.30;;;16.20;97.40;;;;;;5043698;28;20021;-78
2022/09/19 08:54:19;;;;;;;0.10;0.10;;;16.40;96.90;;;;;;5041301;28;20017;-75
2022/09/19 08:56:46;;;;;;;0.10;0.10;;;16.50;97.40;;;;;;5041274;28;20059;-75
2022/09/19 08:59:20;;;;;;;0.10;0.10;;;16.50;97.30;;;;;;5041424;28;20029;-77
2022/09/19 09:01:47;;;;;;;0.15;0.15;;;16.40;97.60;;;;;;5041227;28;20021;-75
2022/09/19 09:04:31;;;;;;;0.10;0.10;;;16.70;98.00;;;;;;5041302;28;20219;-75
2022/09/19 09:07:36;;;;;;;0.10;0.10;;;16.70;97.50;;;;;;5041562;28;20060;-77
2022/09/19 09:10:16;;;;;;;0.10;0.10;;;16.60;97.00;;;;;;4981418;28;20380;-76
2022/09/19 09:13:08;;;;;;;0.10;0.10;;;17.50;97.20;;;;;;4980620;28;20291;-76
2022/09/19 09:15:58;;;;;;;0.10;0.10;;;16.80;97.00;;;;;;4980470;28;20057;-78
2022/09/19 09:18:35;;;;;;;0.10;0.10;;;16.70;97.40;;;;;;4979610;28;20030;-77
2022/09/19 09:21:15;;;;;;;0.10;0.10;;;16.70;96.80;;;;;;4982657;28;20097;-75
2022/09/19 09:23:48;;;;;;;0.20;0.20;;;16.40;97.20;;;;;;4980881;28;20085;-78
2022/09/19 09:26:21;;;;;;;0.43;0.30;;;16.40;97.20;;;;;;4980676;28;20503;-75
2022/09/19 09:28:47;;;;;;;;;;;16.40;97.30;;;;;;4981252;28;20611;-79
2022/09/19 09:31:29;;;;;;;0.10;0.10;;;15.90;98.20;;;;;;4979876;28;19945;-78
2022/09/19 09:34:06;;;;;;;0.30;0.30;;;15.90;98.50;;;;;;4979419;28;20541;-79
2022/09/19 09:36:56;;;;;;;0.10;0.10;;;15.50;98.50;;;;;;4979709;28;20015;-77
2022/09/19 09:40:09;;;;;;;0.10;0.10;;;15.30;99.10;;;;;;4978746;28;20026;-74
2022/09/19 09:42:45;;;;;;;0.10;0.10;;;15.30;99.70;;;;;;4940670;29;20038;-77
2022/09/19 09:45:33;;;;;;;0.10;0.10;;;15.50;99.90;;;;;;4940016;29;20040;-76
2022/09/19 09:48:05;;;;;;;0.10;0.10;;;15.60;99.90;;;;;;4939609;29;20019;-75
2022/09/19 09:51:00;;;;;;;1.65;1.60;;;15.80;99.90;;;;;;4938622;29;20304;-75
2022/09/19 09:53:28;;;;;;;0.10;0.10;;;15.80;99.90;;;;;;4933361;29;20038;-75
2022/09/19 09:56:32;;;;;;;0.10;0.10;;;15.80;99.90;;;;;;4939308;29;20035;-75
2022/09/19 10:05:42;;;;;;;0.68;0.68;;;15.70;98.30;;;;;;4938561;29;20097;-76
2022/09/19 10:08:28;;;;;;;0.10;0.10;;;15.60;99.90;;;;;;4922917;29;20786;-77
2022/09/19 10:11:25;;;;;;;0.10;0.10;;;15.40;99.50;;;;;;4923027;29;20082;-76
2022/09/19 10:14:04;;;;;;;0.10;0.10;;;15.30;98.80;;;;;;4882248;29;20487;-75
2022/09/19 10:16:32;;;;;;;0.10;0.10;;;16.70;99.30;;;;;;4882640;29;20131;-78
2022/09/19 10:19:12;;;;;;;0.10;0.10;;;15.60;99.40;;;;;;4917551;28;20121;-79
2022/09/19 10:21:38;;;;;;;0.10;0.10;;;14.10;99.40;;;;;;4958539;28;20038;-75
2022/09/19 10:24:40;;;;;;;0.10;0.10;;;14.70;99.80;;;;;;4958005;28;20023;-77
2022/09/19 10:27:14;;;;;;;0.15;0.15;;;14.50;99.90;;;;;;4881658;29;20480;-78
2022/09/19 10:30:11;;;;;;;0.10;0.10;;;14.30;99.90;;;;;;4882116;29;20246;-78
2022/09/19 10:32:37;;;;;;;0.10;0.10;;;14.30;99.90;;;;;;4875012;29;20064;-78
2022/09/19 10:35:28;;;;;;;0.10;0.10;;;13.90;99.90;;;;;;4881520;29;20047;-82
2022/09/19 10:38:00;;;;;;;0.47;0.47;;;14.20;99.90;;;;;;4882660;29;20227;-81
2022/09/19 10:40:28;;;;;;;0.20;0.20;;;14.20;99.90;;;;;;4883684;29;20703;-88
2022/09/19 10:42:55;;;;;;;0.10;0.10;;;14.00;99.90;;;;;;4884706;29;20036;-79
2022/09/19 10:45:28;;;;;;;0.10;0.10;;;13.90;99.90;;;;;;4884576;29;20572;-83
2022/09/19 10:48:30;;;;;;;0.20;0.20;;;12.00;99.90;;;;;;4884316;29;20038;-81
2022/09/19 10:50:58;;;;;;;0.10;0.10;;;13.90;99.90;;;;;;4914813;28;20089;-85
2022/09/19 10:53:30;;;;;;;0.10;0.10;;;13.80;99.90;;;;;;4958767;28;20077;-76
2022/09/19 10:56:05;;;;;;;0.10;0.10;;;13.90;99.90;;;;;;4957841;28;20027;-76
2022/09/19 10:58:38;;;;;;;0.10;0.10;;;13.80;99.90;;;;;;4956991;28;20244;-75
2022/09/19 11:01:06;;;;;;;0.10;0.10;;;13.80;99.90;;;;;;4956145;28;20058;-76
2022/09/19 11:03:40;;;;;;;0.10;0.10;;;13.70;99.90;;;;;;4983635;28;20025;-76
2022/09/19 11:06:08;;;;;;;0.10;0.10;;;13.60;99.90;;;;;;5044068;28;20455;-75
2022/09/19 11:08:43;;;;;;;0.10;0.10;;;13.50;99.90;;;;;;5038827;28;20124;-76
2022/09/19 11:11:45;;;;;;;0.30;0.30;;;13.20;99.90;;;;;;5039146;28;20321;-76
2022/09/19 11:14:31;;;;;;;0.10;0.10;;;13.10;99.90;;;;;;5023035;28;20028;-75
2022/09/19 11:17:21;;;;;;;0.10;0.10;;;13.10;99.90;;;;;;5039424;28;20032;-76
2022/09/19 11:20:29;;;;;;;0.10;0.10;;;13.10;99.90;;;;;;5040143;28;20450;-78
2022/09/19 11:23:27;;;;;;;0.10;0.10;;;13.20;99.90;;;;;;5044575;28;20028;-85
2022/09/19 11:26:37;;;;;;;0.47;0.47;;;13.20;99.90;;;;;;5036029;28;20100;-90
2022/09/19 11:29:25;;;;;;;0.10;0.10;;;13.20;99.90;;;;;;5047787;28;20614;-86
2022/09/19 11:32:34;;;;;;;0.10;0.10;;;13.30;99.90;;;;;;5027339;28;20031;-88
2022/09/19 11:35:07;;;;;;;0.10;0.10;;;13.20;99.90;;;;;;5026237;28;20039;-89
2022/09/19 11:37:53;;;;;;;0.10;0.10;;;13.10;99.90;;;;;;5024266;28;20352;-76
2022/09/19 11:40:44;;;;;;;0.10;0.10;;;13.10;99.90;;;;;;5038018;28;20118;-76
2022/09/19 11:43:42;;;;;;;3.72;3.60;;;13.10;99.90;;;;;;5019846;28;20025;-76
2022/09/19 11:46:33;;;;;;;0.10;0.10;;;11.50;99.90;;;;;;5038201;28;20111;-76
2022/09/19 11:49:12;;;;;;;0.10;0.10;;;12.70;99.90;;;;;;5019935;28;20021;-76
2022/09/19 11:52:02;;;;;;;0.13;0.13;;;12.80;99.90;;;;;;5038560;28;20055;-76
2022/09/19 11:55:14;;;;;;;3.03;2.90;;;13.00;99.90;;;;;;5019753;28;20017;-76
2022/09/19 11:57:59;;;;;;;0.10;0.10;;;12.70;99.90;;;;;;5038249;28;20021;-79
2022/09/19 12:00:25;;;;;;;0.10;0.10;;;12.70;99.90;;;;;;5038520;28;20090;-76
2022/09/19 12:03:14;;;;;;;0.10;0.10;;;12.70;99.90;;;;;;5018920;28;20025;-77
2022/09/19 12:05:56;;;;;;;0.20;0.20;;;12.70;99.90;;;;;;5038173;28;20044;-77
2022/09/19 12:08:45;;;;;;;0.10;0.10;;;12.80;99.90;;;;;;5020469;28;20334;-82
2022/09/19 12:11:20;;;;;;;2.55;2.28;;;12.80;99.90;;;;;;5039692;28;20033;-82
2022/09/19 12:13:53;;;;;;;0.10;0.10;;;12.70;99.90;;;;;;5021128;28;20017;-84
2022/09/19 12:16:38;;;;;;;0.93;0.93;;;12.80;99.90;;;;;;5021364;28;20025;-83
2022/09/19 12:19:33;;;;;;;0.17;0.17;;;12.50;99.90;;;;;;5022012;28;20263;-79
2022/09/19 12:22:06;;;;;;;0.10;0.10;;;12.50;99.90;;;;;;5040257;28;20071;-77
2022/09/19 12:24:52;;;;;;;0.10;0.10;;;12.40;99.90;;;;;;5020708;28;20217;-77
2022/09/19 12:27:38;;;;;;;0.10;0.10;;;12.90;99.90;;;;;;5023459;28;20041;-84
2022/09/19 12:30:12;;;;;;;0.10;0.10;;;14.00;99.90;;;;;;5042170;28;20020;-77
2022/09/19 12:32:44;;;;;;;0.10;0.10;;;12.10;99.90;;;;;;5038829;28;20017;-77
2022/09/19 12:35:34;;;;;;;0.10;0.10;;;12.10;99.90;;;;;;5038120;28;20014;-77
2022/09/19 12:38:36;;;;;;;0.10;0.10;;;12.20;99.90;;;;;;4975285;28;20034;-79
2022/09/19 12:41:43;;;;;;;0.10;0.10;;;12.20;99.90;;;;;;4977411;28;20089;-77
2022/09/19 12:44:44;;;;;;;0.10;0.10;;;12.40;99.90;;;;;;4942232;29;20027;-83
2022/09/19 12:47:21;;;;;;;0.10;0.10;;;12.50;99.90;;;;;;4947316;29;20026;-79
2022/09/19 12:50:07;;;;;;;0.20;0.20;;;12.50;99.90;;;;;;4945451;29;20035;-79
2022/09/19 12:52:39;;;;;;;0.10;0.10;;;11.70;99.90;;;;;;4955043;29;20036;-78
2022/09/19 12:55:27;;;;;;;0.10;0.10;;;12.50;99.90;;;;;;4947266;29;20042;-79
2022/09/19 12:58:03;;;;;;;0.10;0.10;;;12.30;99.90;;;;;;4925888;29;20296;-77
2022/09/19 13:00:51;;;;;;;0.10;0.10;;;12.10;99.90;;;;;;4940917;28;20087;-77
2022/09/19 13:03:22;;;;;;;0.10;0.10;;;12.10;99.90;;;;;;4949333;29;20039;-76
2022/09/19 13:05:56;;;;;;;0.10;0.10;;;12.00;99.90;;;;;;4944551;29;20070;-79
2022/09/19 13:08:34;;;;;;;0.10;0.10;;;11.90;99.90;;;;;;4940925;28;20040;-76
2022/09/19 13:11:13;;;;;;;0.10;0.10;;;11.60;99.90;;;;;;4903818;29;20420;-77
2022/09/19 13:13:47;;;;;;;0.10;0.10;;;11.50;99.90;;;;;;4906095;29;20277;-75
2022/09/19 13:16:17;;;;;;;0.13;0.13;;;12.10;99.90;;;;;;4944143;29;20039;-76
2022/09/19 13:25:01;;;;;;;0.10;0.10;;;11.20;99.90;;;;;;5027394;28;20084;-76
2022/09/19 13:27:27;;;;;;;0.10;0.10;;;11.20;99.90;;;;;;4948462;29;20532;-76
2022/09/19 13:29:54;;;;;;;0.10;0.10;;;11.00;99.90;;;;;;4954468;29;20043;-76
2022/09/19 13:32:28;;;;;;;0.10;0.10;;;11.10;99.90;;;;;;4957497;28;20035;-76
2022/09/19 13:35:26;;;;;;;0.10;0.10;;;11.00;99.90;;;;;;4954020;29;20054;-76
2022/09/19 13:37:58;;;;;;;0.10;0.10;;;10.80;99.90;;;;;;4896452;29;20049;-75
2022/09/19 13:40:44;;;;;;;0.10;0.10;;;10.80;99.90;;;;;;4896585;29;20040;-75
2022/09/19 13:43:09;;;;;;;0.10;0.10;;;10.70;99.90;;;;;;4894253;29;20128;-76
2022/09/19 13:46:10;;;;;;;0.10;0.10;;;10.50;99.90;;;;;;4894450;29;20104;-76
2022/09/19 13:49:18;;;;;;;0.10;0.10;;;10.50;99.90;;;;;;4859616;29;20037;-75
2022/09/19 13:51:57;;;;;;;0.10;0.10;;;10.40;99.90;;;;;;4846406;29;20224;-74
2022/09/19 13:54:25;;;;;;;0.00;0.00;;;10.30;99.90;;;;;;4864619;29;20021;-74
2022/09/19 13:57:02;;;;;;;0.10;0.10;;;10.30;99.90;;;;;;4860357;29;20356;-75
2022/09/19 13:59:42;;;;;;;0.10;0.10;;;10.20;99.90;;;;;;4858711;29;20545;-75
2022/09/19 14:02:14;;;;;;;0.10;0.10;;;10.20;99.90;;;;;;4862236;29;20038;-75
2022/09/19 14:04:58;;;;;;;0.00;0.00;;;10.10;99.90;;;;;;4888279;29;20273;-75
2022/09/19 14:07:54;;;;;;;0.10;0.10;;;10.00;99.90;;;;;;4909148;29;20039;-75
2022/09/19 14:10:30;;;;;;;0.10;0.10;;;9.80;99.90;;;;;;4924108;29;20322;-75
2022/09/19 14:13:21;;;;;;;0.10;0.10;;;9.80;99.90;;;;;;4925056;29;20042;-76
2022/09/19 14:16:03;;;;;;;0.00;0.00;;;9.70;99.90;;;;;;4971044;28;20056;-75
2022/09/19 14:18:44;;;;;;;0.00;0.00;;;9.70;99.90;;;;;;4980694;28;20034;-76
2022/09/19 14:21:33;;;;;;;0.03;0.03;;;9.70;99.90;;;;;;4982041;28;20030;-76